sensor_id;sensor_type;location;lat;lon;timestamp;P1;durP1;ratioP1;P2;durP2;ratioP2
31126;SDS011;17775;57.948;12.514;2023-04-03T00:01:47;1.92;;;0.93;;
31126;SDS011;17775;57.948;12.514;2023-04-03T00:04:14;1.40;;;0.65;;
31126;SDS011;17775;57.948;12.514;2023-04-03T00:06:40;1.70;;;0.77;;
31126;SDS011;17775;57.948;12.514;2023-04-03T00:09:07;2.22;;;0.60;;
31126;SDS011;17775;57.948;12.514;2023-04-03T00:11:35;2.90;;;0.70;;
31126;SDS011;17775;57.948;12.514;2023-04-03T00:14:02;4.07;;;0.88;;
31126;SDS011;17775;57.948;12.514;2023-04-03T00:16:28;1.75;;;0.60;;
31126;SDS011;17775;57.948;12.514;2023-04-03T00:18:55;2.75;;;0.90;;
31126;SDS011;17775;57.948;12.514;2023-04-03T00:21:21;1.60;;;0.77;;
31126;SDS011;17775;57.948;12.514;2023-04-03T00:23:48;3.88;;;0.90;;
31126;SDS011;17775;57.948;12.514;2023-04-03T00:26:14;1.77;;;0.77;;
31126;SDS011;17775;57.948;12.514;2023-04-03T00:28:41;1.30;;;0.65;;
31126;SDS011;17775;57.948;12.514;2023-04-03T00:31:07;2.78;;;0.82;;
31126;SDS011;17775;57.948;12.514;2023-04-03T00:33:34;2.70;;;0.60;;
31126;SDS011;17775;57.948;12.514;2023-04-03T00:36:05;1.77;;;0.70;;
31126;SDS011;17775;57.948;12.514;2023-04-03T00:38:31;3.85;;;0.93;;
31126;SDS011;17775;57.948;12.514;2023-04-03T00:40:58;3.67;;;0.68;;
31126;SDS011;17775;57.948;12.514;2023-04-03T00:43:24;1.90;;;0.50;;
31126;SDS011;17775;57.948;12.514;2023-04-03T00:45:53;1.20;;;0.70;;
31126;SDS011;17775;57.948;12.514;2023-04-03T00:48:20;2.75;;;0.88;;
31126;SDS011;17775;57.948;12.514;2023-04-03T00:50:47;2.22;;;0.60;;
31126;SDS011;17775;57.948;12.514;2023-04-03T00:53:16;5.20;;;0.85;;
31126;SDS011;17775;57.948;12.514;2023-04-03T00:55:43;1.52;;;0.60;;
31126;SDS011;17775;57.948;12.514;2023-04-03T00:58:10;1.83;;;0.70;;
31126;SDS011;17775;57.948;12.514;2023-04-03T01:00:38;2.03;;;0.57;;
31126;SDS011;17775;57.948;12.514;2023-04-03T01:03:07;1.83;;;0.90;;
31126;SDS011;17775;57.948;12.514;2023-04-03T01:05:34;1.48;;;0.75;;
31126;SDS011;17775;57.948;12.514;2023-04-03T01:08:01;3.17;;;0.90;;
31126;SDS011;17775;57.948;12.514;2023-04-03T01:10:28;2.90;;;0.80;;
31126;SDS011;17775;57.948;12.514;2023-04-03T01:12:54;1.08;;;0.57;;
31126;SDS011;17775;57.948;12.514;2023-04-03T01:15:22;3.28;;;0.60;;
31126;SDS011;17775;57.948;12.514;2023-04-03T01:17:53;2.10;;;0.70;;
31126;SDS011;17775;57.948;12.514;2023-04-03T01:22:50;1.98;;;0.77;;
31126;SDS011;17775;57.948;12.514;2023-04-03T01:25:22;6.47;;;0.85;;
31126;SDS011;17775;57.948;12.514;2023-04-03T01:27:49;2.55;;;0.90;;
31126;SDS011;17775;57.948;12.514;2023-04-03T01:30:17;1.23;;;0.60;;
31126;SDS011;17775;57.948;12.514;2023-04-03T01:32:44;2.22;;;0.65;;
31126;SDS011;17775;57.948;12.514;2023-04-03T01:35:11;3.05;;;0.77;;
31126;SDS011;17775;57.948;12.514;2023-04-03T01:37:37;2.92;;;0.70;;
31126;SDS011;17775;57.948;12.514;2023-04-03T01:40:04;2.90;;;0.63;;
31126;SDS011;17775;57.948;12.514;2023-04-03T01:42:31;3.78;;;1.30;;
31126;SDS011;17775;57.948;12.514;2023-04-03T01:44:58;1.75;;;0.70;;
31126;SDS011;17775;57.948;12.514;2023-04-03T01:47:24;2.20;;;1.05;;
31126;SDS011;17775;57.948;12.514;2023-04-03T01:49:51;3.05;;;0.70;;
31126;SDS011;17775;57.948;12.514;2023-04-03T01:52:17;3.30;;;1.38;;
31126;SDS011;17775;57.948;12.514;2023-04-03T01:54:43;3.05;;;0.70;;
31126;SDS011;17775;57.948;12.514;2023-04-03T01:57:10;3.40;;;1.55;;
31126;SDS011;17775;57.948;12.514;2023-04-03T01:59:36;1.15;;;0.68;;
31126;SDS011;17775;57.948;12.514;2023-04-03T02:02:03;3.08;;;0.88;;
31126;SDS011;17775;57.948;12.514;2023-04-03T02:04:29;1.25;;;0.80;;
31126;SDS011;17775;57.948;12.514;2023-04-03T02:06:56;3.08;;;0.82;;
31126;SDS011;17775;57.948;12.514;2023-04-03T02:09:22;4.28;;;0.75;;
31126;SDS011;17775;57.948;12.514;2023-04-03T02:11:48;1.75;;;0.55;;
31126;SDS011;17775;57.948;12.514;2023-04-03T02:14:15;1.58;;;0.60;;
31126;SDS011;17775;57.948;12.514;2023-04-03T02:16:41;2.60;;;0.82;;
31126;SDS011;17775;57.948;12.514;2023-04-03T02:19:08;2.22;;;0.60;;
31126;SDS011;17775;57.948;12.514;2023-04-03T02:21:34;2.05;;;1.00;;
31126;SDS011;17775;57.948;12.514;2023-04-03T02:24:01;3.28;;;1.17;;
31126;SDS011;17775;57.948;12.514;2023-04-03T02:26:29;3.90;;;1.08;;
31126;SDS011;17775;57.948;12.514;2023-04-03T02:28:55;1.05;;;0.50;;
31126;SDS011;17775;57.948;12.514;2023-04-03T02:31:22;1.38;;;0.65;;
31126;SDS011;17775;57.948;12.514;2023-04-03T02:33:48;4.80;;;1.00;;
31126;SDS011;17775;57.948;12.514;2023-04-03T02:36:15;5.85;;;1.00;;
31126;SDS011;17775;57.948;12.514;2023-04-03T02:38:41;2.13;;;0.85;;
31126;SDS011;17775;57.948;12.514;2023-04-03T02:41:09;1.90;;;0.80;;
31126;SDS011;17775;57.948;12.514;2023-04-03T02:43:36;1.25;;;0.73;;
31126;SDS011;17775;57.948;12.514;2023-04-03T02:46:05;1.52;;;0.70;;
31126;SDS011;17775;57.948;12.514;2023-04-03T02:48:32;3.05;;;0.77;;
31126;SDS011;17775;57.948;12.514;2023-04-03T02:50:58;2.20;;;0.90;;
31126;SDS011;17775;57.948;12.514;2023-04-03T02:53:25;2.45;;;0.82;;
31126;SDS011;17775;57.948;12.514;2023-04-03T02:55:51;2.35;;;0.85;;
31126;SDS011;17775;57.948;12.514;2023-04-03T02:58:18;2.38;;;0.82;;
31126;SDS011;17775;57.948;12.514;2023-04-03T03:00:44;1.08;;;0.73;;
31126;SDS011;17775;57.948;12.514;2023-04-03T03:03:11;3.70;;;0.70;;
31126;SDS011;17775;57.948;12.514;2023-04-03T03:05:37;3.65;;;0.82;;
31126;SDS011;17775;57.948;12.514;2023-04-03T03:08:03;1.20;;;0.70;;
31126;SDS011;17775;57.948;12.514;2023-04-03T03:10:30;1.98;;;1.02;;
31126;SDS011;17775;57.948;12.514;2023-04-03T03:12:57;2.22;;;0.80;;
31126;SDS011;17775;57.948;12.514;2023-04-03T03:15:23;4.03;;;0.80;;
31126;SDS011;17775;57.948;12.514;2023-04-03T03:17:49;5.15;;;1.25;;
31126;SDS011;17775;57.948;12.514;2023-04-03T03:20:16;3.70;;;1.00;;
31126;SDS011;17775;57.948;12.514;2023-04-03T03:22:43;1.73;;;0.90;;
31126;SDS011;17775;57.948;12.514;2023-04-03T03:25:09;2.20;;;0.88;;
31126;SDS011;17775;57.948;12.514;2023-04-03T03:27:38;1.42;;;0.80;;
31126;SDS011;17775;57.948;12.514;2023-04-03T03:30:04;3.80;;;1.13;;
31126;SDS011;17775;57.948;12.514;2023-04-03T03:32:31;7.18;;;1.10;;
31126;SDS011;17775;57.948;12.514;2023-04-03T03:34:58;2.65;;;1.00;;
31126;SDS011;17775;57.948;12.514;2023-04-03T03:37:24;2.03;;;1.42;;
31126;SDS011;17775;57.948;12.514;2023-04-03T03:39:51;2.33;;;0.98;;
31126;SDS011;17775;57.948;12.514;2023-04-03T03:42:17;2.20;;;0.80;;
31126;SDS011;17775;57.948;12.514;2023-04-03T03:44:44;5.05;;;1.02;;
31126;SDS011;17775;57.948;12.514;2023-04-03T03:47:10;2.78;;;1.13;;
31126;SDS011;17775;57.948;12.514;2023-04-03T03:49:37;1.92;;;0.68;;
31126;SDS011;17775;57.948;12.514;2023-04-03T03:52:03;2.97;;;0.88;;
31126;SDS011;17775;57.948;12.514;2023-04-03T03:54:30;5.68;;;0.80;;
31126;SDS011;17775;57.948;12.514;2023-04-03T03:56:56;2.38;;;0.98;;
31126;SDS011;17775;57.948;12.514;2023-04-03T03:59:23;4.05;;;1.00;;
31126;SDS011;17775;57.948;12.514;2023-04-03T04:01:49;2.28;;;0.70;;
31126;SDS011;17775;57.948;12.514;2023-04-03T04:04:15;2.90;;;0.80;;
31126;SDS011;17775;57.948;12.514;2023-04-03T04:06:42;2.72;;;0.95;;
31126;SDS011;17775;57.948;12.514;2023-04-03T04:09:09;2.33;;;0.98;;
31126;SDS011;17775;57.948;12.514;2023-04-03T04:11:35;1.42;;;0.77;;
31126;SDS011;17775;57.948;12.514;2023-04-03T04:14:02;2.20;;;0.90;;
31126;SDS011;17775;57.948;12.514;2023-04-03T04:16:28;1.70;;;1.05;;
31126;SDS011;17775;57.948;12.514;2023-04-03T04:18:55;3.22;;;0.82;;
31126;SDS011;17775;57.948;12.514;2023-04-03T04:21:21;3.47;;;0.80;;
31126;SDS011;17775;57.948;12.514;2023-04-03T04:23:47;3.85;;;0.98;;
31126;SDS011;17775;57.948;12.514;2023-04-03T04:26:14;4.80;;;0.90;;
31126;SDS011;17775;57.948;12.514;2023-04-03T04:28:40;1.63;;;0.70;;
31126;SDS011;17775;57.948;12.514;2023-04-03T04:31:07;3.17;;;0.90;;
31126;SDS011;17775;57.948;12.514;2023-04-03T04:33:33;2.85;;;0.82;;
31126;SDS011;17775;57.948;12.514;2023-04-03T04:36:00;1.88;;;0.73;;
31126;SDS011;17775;57.948;12.514;2023-04-03T04:38:26;1.75;;;0.80;;
31126;SDS011;17775;57.948;12.514;2023-04-03T04:40:52;3.40;;;0.90;;
31126;SDS011;17775;57.948;12.514;2023-04-03T04:43:19;4.00;;;1.40;;
31126;SDS011;17775;57.948;12.514;2023-04-03T04:45:46;4.25;;;1.63;;
31126;SDS011;17775;57.948;12.514;2023-04-03T04:48:12;2.63;;;1.45;;
31126;SDS011;17775;57.948;12.514;2023-04-03T04:50:39;6.65;;;2.15;;
31126;SDS011;17775;57.948;12.514;2023-04-03T04:53:05;4.13;;;1.98;;
31126;SDS011;17775;57.948;12.514;2023-04-03T04:55:32;5.90;;;2.10;;
31126;SDS011;17775;57.948;12.514;2023-04-03T04:57:58;5.43;;;2.33;;
31126;SDS011;17775;57.948;12.514;2023-04-03T05:00:25;5.95;;;2.22;;
31126;SDS011;17775;57.948;12.514;2023-04-03T05:02:52;5.85;;;2.83;;
31126;SDS011;17775;57.948;12.514;2023-04-03T05:05:18;14.27;;;3.25;;
31126;SDS011;17775;57.948;12.514;2023-04-03T05:07:44;6.10;;;2.42;;
31126;SDS011;17775;57.948;12.514;2023-04-03T05:10:11;13.35;;;2.22;;
31126;SDS011;17775;57.948;12.514;2023-04-03T05:12:37;12.32;;;3.50;;
31126;SDS011;17775;57.948;12.514;2023-04-03T05:15:04;4.00;;;1.38;;
31126;SDS011;17775;57.948;12.514;2023-04-03T05:17:30;3.85;;;1.42;;
31126;SDS011;17775;57.948;12.514;2023-04-03T05:19:57;5.28;;;1.17;;
31126;SDS011;17775;57.948;12.514;2023-04-03T05:22:23;7.10;;;1.70;;
31126;SDS011;17775;57.948;12.514;2023-04-03T05:24:50;5.45;;;1.77;;
31126;SDS011;17775;57.948;12.514;2023-04-03T05:27:16;4.60;;;2.08;;
31126;SDS011;17775;57.948;12.514;2023-04-03T05:29:43;2.63;;;1.60;;
31126;SDS011;17775;57.948;12.514;2023-04-03T05:32:10;3.20;;;1.73;;
31126;SDS011;17775;57.948;12.514;2023-04-03T05:34:37;6.38;;;1.80;;
31126;SDS011;17775;57.948;12.514;2023-04-03T05:37:04;3.88;;;1.60;;
31126;SDS011;17775;57.948;12.514;2023-04-03T05:39:31;4.05;;;1.70;;
31126;SDS011;17775;57.948;12.514;2023-04-03T05:41:58;2.85;;;1.40;;
31126;SDS011;17775;57.948;12.514;2023-04-03T05:44:24;4.70;;;1.48;;
31126;SDS011;17775;57.948;12.514;2023-04-03T05:46:50;4.93;;;1.40;;
31126;SDS011;17775;57.948;12.514;2023-04-03T05:49:24;5.93;;;1.17;;
31126;SDS011;17775;57.948;12.514;2023-04-03T05:51:51;3.80;;;1.65;;
31126;SDS011;17775;57.948;12.514;2023-04-03T05:54:28;5.65;;;1.75;;
31126;SDS011;17775;57.948;12.514;2023-04-03T05:56:55;5.45;;;2.30;;
31126;SDS011;17775;57.948;12.514;2023-04-03T05:59:22;4.30;;;1.83;;
31126;SDS011;17775;57.948;12.514;2023-04-03T06:01:48;10.48;;;2.05;;
31126;SDS011;17775;57.948;12.514;2023-04-03T06:04:15;13.07;;;1.60;;
31126;SDS011;17775;57.948;12.514;2023-04-03T06:07:03;4.07;;;1.40;;
31126;SDS011;17775;57.948;12.514;2023-04-03T06:09:28;6.72;;;1.58;;
31126;SDS011;17775;57.948;12.514;2023-04-03T06:11:55;3.67;;;1.02;;
31126;SDS011;17775;57.948;12.514;2023-04-03T06:14:25;9.02;;;1.00;;
31126;SDS011;17775;57.948;12.514;2023-04-03T06:16:52;2.83;;;1.08;;
31126;SDS011;17775;57.948;12.514;2023-04-03T06:19:18;4.50;;;1.13;;
31126;SDS011;17775;57.948;12.514;2023-04-03T06:21:45;1.48;;;0.70;;
31126;SDS011;17775;57.948;12.514;2023-04-03T06:24:14;2.35;;;0.98;;
31126;SDS011;17775;57.948;12.514;2023-04-03T06:26:41;1.67;;;0.90;;
31126;SDS011;17775;57.948;12.514;2023-04-03T06:29:08;4.45;;;1.10;;
31126;SDS011;17775;57.948;12.514;2023-04-03T06:31:34;2.63;;;1.50;;
31126;SDS011;17775;57.948;12.514;2023-04-03T06:34:02;2.20;;;0.90;;
31126;SDS011;17775;57.948;12.514;2023-04-03T06:36:29;4.40;;;0.90;;
31126;SDS011;17775;57.948;12.514;2023-04-03T06:38:56;4.50;;;0.75;;
31126;SDS011;17775;57.948;12.514;2023-04-03T06:41:22;4.72;;;0.98;;
31126;SDS011;17775;57.948;12.514;2023-04-03T06:43:48;1.48;;;0.70;;
31126;SDS011;17775;57.948;12.514;2023-04-03T06:46:16;1.88;;;0.95;;
31126;SDS011;17775;57.948;12.514;2023-04-03T06:48:43;6.13;;;1.02;;
31126;SDS011;17775;57.948;12.514;2023-04-03T06:53:45;4.95;;;0.98;;
31126;SDS011;17775;57.948;12.514;2023-04-03T06:56:12;2.08;;;0.80;;
31126;SDS011;17775;57.948;12.514;2023-04-03T06:58:39;5.60;;;1.15;;
31126;SDS011;17775;57.948;12.514;2023-04-03T07:01:05;2.03;;;0.70;;
31126;SDS011;17775;57.948;12.514;2023-04-03T07:03:32;2.25;;;0.77;;
31126;SDS011;17775;57.948;12.514;2023-04-03T07:06:00;1.85;;;0.75;;
31126;SDS011;17775;57.948;12.514;2023-04-03T07:08:27;4.18;;;1.10;;
31126;SDS011;17775;57.948;12.514;2023-04-03T07:10:55;3.38;;;0.80;;
31126;SDS011;17775;57.948;12.514;2023-04-03T07:13:22;3.60;;;0.93;;
31126;SDS011;17775;57.948;12.514;2023-04-03T07:15:48;2.72;;;0.90;;
31126;SDS011;17775;57.948;12.514;2023-04-03T07:18:15;4.05;;;0.95;;
31126;SDS011;17775;57.948;12.514;2023-04-03T07:20:43;2.25;;;0.85;;
31126;SDS011;17775;57.948;12.514;2023-04-03T07:23:09;6.22;;;1.13;;
31126;SDS011;17775;57.948;12.514;2023-04-03T07:25:36;2.53;;;0.80;;
31126;SDS011;17775;57.948;12.514;2023-04-03T07:28:07;1.90;;;0.77;;
31126;SDS011;17775;57.948;12.514;2023-04-03T07:30:34;3.17;;;1.00;;
31126;SDS011;17775;57.948;12.514;2023-04-03T07:33:01;2.60;;;0.80;;
31126;SDS011;17775;57.948;12.514;2023-04-03T07:35:28;7.40;;;0.75;;
31126;SDS011;17775;57.948;12.514;2023-04-03T07:37:54;4.00;;;1.00;;
31126;SDS011;17775;57.948;12.514;2023-04-03T07:40:21;2.88;;;1.10;;
31126;SDS011;17775;57.948;12.514;2023-04-03T07:42:48;5.25;;;1.25;;
31126;SDS011;17775;57.948;12.514;2023-04-03T07:45:16;2.50;;;0.60;;
31126;SDS011;17775;57.948;12.514;2023-04-03T07:47:43;2.15;;;0.93;;
31126;SDS011;17775;57.948;12.514;2023-04-03T07:50:10;3.38;;;0.77;;
31126;SDS011;17775;57.948;12.514;2023-04-03T07:52:36;3.92;;;0.90;;
31126;SDS011;17775;57.948;12.514;2023-04-03T07:55:03;3.92;;;0.90;;
31126;SDS011;17775;57.948;12.514;2023-04-03T07:57:29;3.28;;;0.88;;
31126;SDS011;17775;57.948;12.514;2023-04-03T07:59:56;2.42;;;0.93;;
31126;SDS011;17775;57.948;12.514;2023-04-03T08:02:23;4.00;;;0.88;;
31126;SDS011;17775;57.948;12.514;2023-04-03T08:04:49;3.60;;;1.10;;
31126;SDS011;17775;57.948;12.514;2023-04-03T08:07:16;3.60;;;0.70;;
31126;SDS011;17775;57.948;12.514;2023-04-03T08:09:42;1.88;;;0.63;;
31126;SDS011;17775;57.948;12.514;2023-04-03T08:12:10;3.30;;;0.70;;
31126;SDS011;17775;57.948;12.514;2023-04-03T08:14:37;3.92;;;0.70;;
31126;SDS011;17775;57.948;12.514;2023-04-03T08:17:04;1.30;;;0.60;;
31126;SDS011;17775;57.948;12.514;2023-04-03T08:19:31;2.35;;;0.60;;
31126;SDS011;17775;57.948;12.514;2023-04-03T08:21:57;2.38;;;0.63;;
31126;SDS011;17775;57.948;12.514;2023-04-03T08:24:24;10.57;;;1.10;;
31126;SDS011;17775;57.948;12.514;2023-04-03T08:26:51;5.97;;;0.65;;
31126;SDS011;17775;57.948;12.514;2023-04-03T08:29:18;1.30;;;0.65;;
31126;SDS011;17775;57.948;12.514;2023-04-03T08:31:44;3.47;;;0.80;;
31126;SDS011;17775;57.948;12.514;2023-04-03T08:34:12;2.42;;;0.50;;
31126;SDS011;17775;57.948;12.514;2023-04-03T08:36:39;1.88;;;0.57;;
31126;SDS011;17775;57.948;12.514;2023-04-03T08:39:06;3.03;;;0.60;;
31126;SDS011;17775;57.948;12.514;2023-04-03T08:41:36;2.38;;;0.80;;
31126;SDS011;17775;57.948;12.514;2023-04-03T08:49:25;5.50;;;0.70;;
31126;SDS011;17775;57.948;12.514;2023-04-03T08:51:53;1.08;;;0.50;;
31126;SDS011;17775;57.948;12.514;2023-04-03T08:54:28;4.07;;;0.57;;
31126;SDS011;17775;57.948;12.514;2023-04-03T08:56:55;3.08;;;0.70;;
31126;SDS011;17775;57.948;12.514;2023-04-03T08:59:24;1.95;;;0.63;;
31126;SDS011;17775;57.948;12.514;2023-04-03T09:01:52;3.13;;;0.70;;
31126;SDS011;17775;57.948;12.514;2023-04-03T09:04:20;1.77;;;0.57;;
31126;SDS011;17775;57.948;12.514;2023-04-03T09:06:49;1.35;;;0.50;;
31126;SDS011;17775;57.948;12.514;2023-04-03T09:09:36;3.25;;;0.82;;
31126;SDS011;17775;57.948;12.514;2023-04-03T09:22:31;3.22;;;0.85;;
31126;SDS011;17775;57.948;12.514;2023-04-03T09:27:26;1.63;;;0.75;;
31126;SDS011;17775;57.948;12.514;2023-04-03T09:29:53;3.10;;;0.98;;
31126;SDS011;17775;57.948;12.514;2023-04-03T09:32:24;2.10;;;0.70;;
31126;SDS011;17775;57.948;12.514;2023-04-03T09:34:51;2.55;;;0.70;;
31126;SDS011;17775;57.948;12.514;2023-04-03T09:40:05;2.33;;;1.00;;
31126;SDS011;17775;57.948;12.514;2023-04-03T09:42:31;1.55;;;0.60;;
31126;SDS011;17775;57.948;12.514;2023-04-03T09:44:59;2.70;;;0.80;;
31126;SDS011;17775;57.948;12.514;2023-04-03T09:47:30;2.15;;;0.90;;
31126;SDS011;17775;57.948;12.514;2023-04-03T09:52:49;1.80;;;0.68;;
31126;SDS011;17775;57.948;12.514;2023-04-03T09:55:20;3.90;;;0.80;;
31126;SDS011;17775;57.948;12.514;2023-04-03T09:58:00;3.67;;;0.63;;
31126;SDS011;17775;57.948;12.514;2023-04-03T10:00:37;1.60;;;0.50;;
31126;SDS011;17775;57.948;12.514;2023-04-03T10:03:04;3.55;;;0.90;;
31126;SDS011;17775;57.948;12.514;2023-04-03T10:05:32;1.90;;;0.50;;
31126;SDS011;17775;57.948;12.514;2023-04-03T10:08:22;2.83;;;0.70;;
31126;SDS011;17775;57.948;12.514;2023-04-03T10:10:47;5.30;;;1.00;;
31126;SDS011;17775;57.948;12.514;2023-04-03T10:13:18;1.85;;;0.80;;
31126;SDS011;17775;57.948;12.514;2023-04-03T10:15:51;2.90;;;0.80;;
31126;SDS011;17775;57.948;12.514;2023-04-03T10:21:06;1.90;;;0.70;;
31126;SDS011;17775;57.948;12.514;2023-04-03T10:23:44;3.42;;;0.73;;
31126;SDS011;17775;57.948;12.514;2023-04-03T10:26:17;2.50;;;0.63;;
31126;SDS011;17775;57.948;12.514;2023-04-03T10:28:50;2.83;;;0.75;;
31126;SDS011;17775;57.948;12.514;2023-04-03T10:34:06;3.22;;;1.02;;
31126;SDS011;17775;57.948;12.514;2023-04-03T10:44:41;1.42;;;0.50;;
31126;SDS011;17775;57.948;12.514;2023-04-03T10:47:17;2.15;;;0.77;;
31126;SDS011;17775;57.948;12.514;2023-04-03T10:57:21;3.92;;;0.70;;
31126;SDS011;17775;57.948;12.514;2023-04-03T10:59:56;2.45;;;0.70;;
31126;SDS011;17775;57.948;12.514;2023-04-03T11:04:55;3.60;;;1.50;;
31126;SDS011;17775;57.948;12.514;2023-04-03T11:09:54;0.70;;;0.70;;
31126;SDS011;17775;57.948;12.514;2023-04-03T11:12:26;0.75;;;0.40;;
31126;SDS011;17775;57.948;12.514;2023-04-03T11:14:53;5.43;;;0.85;;
31126;SDS011;17775;57.948;12.514;2023-04-03T11:17:38;1.92;;;0.47;;
31126;SDS011;17775;57.948;12.514;2023-04-03T11:20:20;1.67;;;0.52;;
31126;SDS011;17775;57.948;12.514;2023-04-03T11:22:57;1.13;;;0.52;;
31126;SDS011;17775;57.948;12.514;2023-04-03T11:25:25;8.45;;;0.95;;
31126;SDS011;17775;57.948;12.514;2023-04-03T11:30:23;2.37;;;1.47;;
31126;SDS011;17775;57.948;12.514;2023-04-03T11:35:35;1.83;;;0.65;;
31126;SDS011;17775;57.948;12.514;2023-04-03T11:38:03;1.70;;;0.60;;
31126;SDS011;17775;57.948;12.514;2023-04-03T11:40:33;1.35;;;0.60;;
31126;SDS011;17775;57.948;12.514;2023-04-03T11:45:31;2.63;;;0.57;;
31126;SDS011;17775;57.948;12.514;2023-04-03T11:48:00;7.90;;;1.30;;
31126;SDS011;17775;57.948;12.514;2023-04-03T11:50:46;1.13;;;0.80;;
31126;SDS011;17775;57.948;12.514;2023-04-03T11:58:34;1.90;;;0.70;;
31126;SDS011;17775;57.948;12.514;2023-04-03T12:13:35;0.95;;;0.77;;
31126;SDS011;17775;57.948;12.514;2023-04-03T12:16:02;3.30;;;0.73;;
31126;SDS011;17775;57.948;12.514;2023-04-03T12:18:42;2.40;;;0.63;;
31126;SDS011;17775;57.948;12.514;2023-04-03T12:21:10;2.13;;;0.80;;
31126;SDS011;17775;57.948;12.514;2023-04-03T12:26:24;2.33;;;1.15;;
31126;SDS011;17775;57.948;12.514;2023-04-03T12:29:10;1.98;;;0.63;;
31126;SDS011;17775;57.948;12.514;2023-04-03T12:31:45;1.52;;;0.70;;
31126;SDS011;17775;57.948;12.514;2023-04-03T12:37:00;1.67;;;0.73;;
31126;SDS011;17775;57.948;12.514;2023-04-03T12:39:51;1.65;;;1.00;;
31126;SDS011;17775;57.948;12.514;2023-04-03T12:45:14;3.53;;;1.00;;
31126;SDS011;17775;57.948;12.514;2023-04-03T12:47:43;3.33;;;0.80;;
31126;SDS011;17775;57.948;12.514;2023-04-03T12:50:25;3.37;;;1.00;;
31126;SDS011;17775;57.948;12.514;2023-04-03T12:55:22;3.90;;;1.08;;
31126;SDS011;17775;57.948;12.514;2023-04-03T12:57:49;2.13;;;0.90;;
31126;SDS011;17775;57.948;12.514;2023-04-03T13:00:49;2.38;;;1.10;;
31126;SDS011;17775;57.948;12.514;2023-04-03T13:03:19;1.55;;;0.90;;
31126;SDS011;17775;57.948;12.514;2023-04-03T13:05:47;3.38;;;0.90;;
31126;SDS011;17775;57.948;12.514;2023-04-03T13:08:14;1.77;;;0.95;;
31126;SDS011;17775;57.948;12.514;2023-04-03T13:11:25;1.73;;;1.00;;
31126;SDS011;17775;57.948;12.514;2023-04-03T13:13:31;1.85;;;0.80;;
31126;SDS011;17775;57.948;12.514;2023-04-03T13:15:58;2.17;;;1.17;;
31126;SDS011;17775;57.948;12.514;2023-04-03T13:20:56;1.20;;;0.85;;
31126;SDS011;17775;57.948;12.514;2023-04-03T13:23:23;1.17;;;0.75;;
31126;SDS011;17775;57.948;12.514;2023-04-03T13:25:50;1.60;;;0.80;;
31126;SDS011;17775;57.948;12.514;2023-04-03T13:28:21;1.92;;;0.98;;
31126;SDS011;17775;57.948;12.514;2023-04-03T13:31:23;1.02;;;0.70;;
31126;SDS011;17775;57.948;12.514;2023-04-03T13:33:54;5.47;;;0.93;;
31126;SDS011;17775;57.948;12.514;2023-04-03T13:36:22;1.67;;;0.90;;
31126;SDS011;17775;57.948;12.514;2023-04-03T13:38:59;1.50;;;0.65;;
31126;SDS011;17775;57.948;12.514;2023-04-03T13:41:33;3.55;;;0.82;;
31126;SDS011;17775;57.948;12.514;2023-04-03T13:46:45;1.48;;;0.98;;
31126;SDS011;17775;57.948;12.514;2023-04-03T13:49:32;3.22;;;0.90;;
31126;SDS011;17775;57.948;12.514;2023-04-03T13:51:59;0.93;;;0.80;;
31126;SDS011;17775;57.948;12.514;2023-04-03T13:54:37;2.47;;;1.00;;
31126;SDS011;17775;57.948;12.514;2023-04-03T13:57:12;1.13;;;0.60;;
31126;SDS011;17775;57.948;12.514;2023-04-03T13:59:38;0.93;;;0.70;;
31126;SDS011;17775;57.948;12.514;2023-04-03T14:07:14;2.38;;;0.85;;
31126;SDS011;17775;57.948;12.514;2023-04-03T14:09:42;2.08;;;0.85;;
31126;SDS011;17775;57.948;12.514;2023-04-03T14:12:18;1.33;;;1.10;;
31126;SDS011;17775;57.948;12.514;2023-04-03T14:14:56;2.85;;;0.90;;
31126;SDS011;17775;57.948;12.514;2023-04-03T14:17:24;1.38;;;0.75;;
31126;SDS011;17775;57.948;12.514;2023-04-03T14:19:51;1.25;;;0.70;;
31126;SDS011;17775;57.948;12.514;2023-04-03T14:22:19;3.40;;;0.93;;
31126;SDS011;17775;57.948;12.514;2023-04-03T14:24:47;2.13;;;0.80;;
31126;SDS011;17775;57.948;12.514;2023-04-03T14:27:28;2.45;;;0.98;;
31126;SDS011;17775;57.948;12.514;2023-04-03T14:29:55;1.02;;;0.88;;
31126;SDS011;17775;57.948;12.514;2023-04-03T14:32:22;2.17;;;0.80;;
31126;SDS011;17775;57.948;12.514;2023-04-03T14:34:50;1.73;;;0.85;;
31126;SDS011;17775;57.948;12.514;2023-04-03T14:37:26;1.73;;;0.85;;
31126;SDS011;17775;57.948;12.514;2023-04-03T14:39:54;1.80;;;0.93;;
31126;SDS011;17775;57.948;12.514;2023-04-03T14:42:25;2.40;;;0.88;;
31126;SDS011;17775;57.948;12.514;2023-04-03T14:44:52;6.43;;;1.05;;
31126;SDS011;17775;57.948;12.514;2023-04-03T14:47:20;1.05;;;0.73;;
31126;SDS011;17775;57.948;12.514;2023-04-03T14:49:57;1.75;;;0.90;;
31126;SDS011;17775;57.948;12.514;2023-04-03T14:52:25;2.13;;;0.80;;
31126;SDS011;17775;57.948;12.514;2023-04-03T14:54:52;2.53;;;0.98;;
31126;SDS011;17775;57.948;12.514;2023-04-03T14:57:19;3.97;;;0.85;;
31126;SDS011;17775;57.948;12.514;2023-04-03T14:59:47;1.33;;;0.90;;
31126;SDS011;17775;57.948;12.514;2023-04-03T15:02:30;1.83;;;0.77;;
31126;SDS011;17775;57.948;12.514;2023-04-03T15:04:58;1.45;;;0.70;;
31126;SDS011;17775;57.948;12.514;2023-04-03T15:07:25;4.10;;;1.17;;
31126;SDS011;17775;57.948;12.514;2023-04-03T15:09:53;1.48;;;0.90;;
31126;SDS011;17775;57.948;12.514;2023-04-03T15:12:22;1.88;;;0.90;;
31126;SDS011;17775;57.948;12.514;2023-04-03T15:14:48;2.05;;;0.90;;
31126;SDS011;17775;57.948;12.514;2023-04-03T15:17:25;1.63;;;0.90;;
31126;SDS011;17775;57.948;12.514;2023-04-03T15:19:51;1.90;;;1.10;;
31126;SDS011;17775;57.948;12.514;2023-04-03T15:22:18;1.67;;;0.80;;
31126;SDS011;17775;57.948;12.514;2023-04-03T15:24:45;2.65;;;0.90;;
31126;SDS011;17775;57.948;12.514;2023-04-03T15:27:12;13.95;;;1.70;;
31126;SDS011;17775;57.948;12.514;2023-04-03T15:29:39;2.22;;;0.90;;
31126;SDS011;17775;57.948;12.514;2023-04-03T15:32:07;2.55;;;0.88;;
31126;SDS011;17775;57.948;12.514;2023-04-03T15:34:35;1.90;;;0.88;;
31126;SDS011;17775;57.948;12.514;2023-04-03T15:37:02;2.15;;;0.80;;
31126;SDS011;17775;57.948;12.514;2023-04-03T15:39:28;3.03;;;0.77;;
31126;SDS011;17775;57.948;12.514;2023-04-03T15:41:55;1.90;;;0.70;;
31126;SDS011;17775;57.948;12.514;2023-04-03T15:44:21;4.15;;;1.13;;
31126;SDS011;17775;57.948;12.514;2023-04-03T15:46:48;2.47;;;0.90;;
31126;SDS011;17775;57.948;12.514;2023-04-03T15:49:16;1.80;;;0.80;;
31126;SDS011;17775;57.948;12.514;2023-04-03T15:51:42;4.57;;;0.77;;
31126;SDS011;17775;57.948;12.514;2023-04-03T15:54:08;1.38;;;0.55;;
31126;SDS011;17775;57.948;12.514;2023-04-03T15:56:35;4.78;;;0.80;;
31126;SDS011;17775;57.948;12.514;2023-04-03T15:59:01;1.65;;;0.60;;
31126;SDS011;17775;57.948;12.514;2023-04-03T16:01:28;1.23;;;0.60;;
31126;SDS011;17775;57.948;12.514;2023-04-03T16:03:55;1.35;;;0.50;;
31126;SDS011;17775;57.948;12.514;2023-04-03T16:06:22;2.28;;;0.68;;
31126;SDS011;17775;57.948;12.514;2023-04-03T16:08:50;1.58;;;0.70;;
31126;SDS011;17775;57.948;12.514;2023-04-03T16:11:17;2.30;;;0.68;;
31126;SDS011;17775;57.948;12.514;2023-04-03T16:13:43;1.83;;;0.70;;
31126;SDS011;17775;57.948;12.514;2023-04-03T16:16:10;2.03;;;0.70;;
31126;SDS011;17775;57.948;12.514;2023-04-03T16:18:36;1.85;;;0.63;;
31126;SDS011;17775;57.948;12.514;2023-04-03T16:21:06;1.67;;;0.60;;
31126;SDS011;17775;57.948;12.514;2023-04-03T16:23:33;1.17;;;0.75;;